Time;durP1;ratioP1;P1;durP2;ratioP2;P2;SDS_P1;SDS_P2;PMS_P1;PMS_P2;Temp;Humidity;BMP_temperature;BMP_pressure;BME280_temperature;BME280_humidity;BME280_pressure;Samples;Min_cycle;Max_cycle;Signal;HPM_P1;HPM_P2
2022/12/03 00:00:37;;;;;;;3.97;3.30;;;16.10;63.20;16.90;101293.00;;;;5052612;28;20548;-45
2022/12/03 00:03:02;;;;;;;3.57;3.27;;;16.10;63.20;16.90;101289.00;;;;5051961;28;20261;-45
2022/12/03 00:05:28;;;;;;;3.20;3.00;;;16.10;63.20;16.90;101293.00;;;;5052036;28;20253;-45
2022/12/03 00:07:54;;;;;;;4.87;3.40;;;16.10;63.20;16.90;101296.00;;;;5051890;28;20194;-45
2022/12/03 00:10:20;;;;;;;5.43;3.67;;;16.10;63.20;16.90;101295.00;;;;5052102;28;20206;-45
2022/12/03 00:12:45;;;;;;;4.13;3.40;;;16.10;63.10;16.90;101294.00;;;;5051858;28;20170;-43
2022/12/03 00:15:11;;;;;;;4.07;3.67;;;16.10;63.00;16.90;101299.00;;;;5051831;28;20565;-44
2022/12/03 00:17:37;;;;;;;4.57;3.83;;;16.00;62.90;16.90;101289.00;;;;5051784;28;20249;-43
2022/12/03 00:20:05;;;;;;;3.53;3.13;;;16.00;63.00;16.80;101289.00;;;;5051853;28;20197;-44
2022/12/03 00:22:31;;;;;;;3.57;3.27;;;16.00;63.10;16.80;101294.00;;;;5051856;28;20224;-45
2022/12/03 00:24:57;;;;;;;3.50;3.20;;;16.00;63.10;16.80;101285.00;;;;5051374;28;20174;-44
2022/12/03 00:27:23;;;;;;;3.83;3.30;;;15.90;63.00;16.80;101299.00;;;;5051908;28;20301;-44
2022/12/03 00:29:49;;;;;;;3.67;3.37;;;15.90;63.00;16.80;101286.00;;;;5051862;28;20257;-44
2022/12/03 00:32:15;;;;;;;3.63;3.33;;;15.90;63.10;16.70;101287.00;;;;5050791;28;20202;-44
2022/12/03 00:34:40;;;;;;;3.60;3.30;;;15.90;63.10;16.70;101285.00;;;;5050626;28;20217;-44
2022/12/03 00:37:06;;;;;;;3.57;3.17;;;15.80;63.10;16.70;101280.00;;;;5050828;28;20186;-44
2022/12/03 00:39:32;;;;;;;4.03;3.30;;;15.80;63.10;16.70;101285.00;;;;5050646;28;20636;-45
2022/12/03 00:41:58;;;;;;;3.50;3.00;;;15.80;63.10;16.70;101292.00;;;;5050532;28;20209;-45
2022/12/03 00:44:24;;;;;;;3.30;3.10;;;15.80;63.10;16.60;101282.00;;;;5050584;28;20182;-44
2022/12/03 00:46:50;;;;;;;3.50;3.30;;;15.80;63.20;16.60;101274.00;;;;5050400;28;20213;-45
2022/12/03 00:49:15;;;;;;;3.50;3.20;;;15.70;63.10;16.60;101277.00;;;;5050524;28;20182;-44
2022/12/03 00:51:41;;;;;;;3.33;3.03;;;15.70;63.10;16.60;101276.00;;;;5050365;28;20213;-44
2022/12/03 00:54:07;;;;;;;3.20;3.00;;;15.70;63.30;16.60;101279.00;;;;5050446;28;20285;-44
2022/12/03 00:56:32;;;;;;;3.57;3.27;;;15.60;63.10;16.60;101287.00;;;;5049858;28;20194;-45
2022/12/03 00:58:58;;;;;;;3.40;3.10;;;15.60;63.20;16.60;101284.00;;;;5049656;28;20224;-44
2022/12/03 01:01:24;;;;;;;3.20;3.00;;;15.60;63.20;16.50;101291.00;;;;5049589;28;20233;-43
2022/12/03 01:03:50;;;;;;;3.83;3.00;;;15.60;63.20;16.50;101279.00;;;;5032351;28;20659;-45
2022/12/03 01:06:15;;;;;;;3.40;3.10;;;15.60;63.30;16.50;101280.00;;;;5050008;28;20197;-44
2022/12/03 01:08:41;;;;;;;3.07;2.87;;;15.60;63.30;16.50;101288.00;;;;5051623;28;20186;-44
2022/12/03 01:11:36;;;;;;;3.30;3.00;;;15.60;63.40;16.50;101292.00;;;;5050167;28;20171;-44
2022/12/03 01:13:52;;;;;;;3.83;3.20;;;15.60;63.40;16.40;101296.00;;;;5034874;28;20618;-44
2022/12/03 01:16:18;;;;;;;3.50;3.10;;;15.50;63.30;16.40;101301.00;;;;5049831;28;20201;-44
2022/12/03 01:18:45;;;;;;;3.27;3.07;;;15.50;63.40;16.40;101290.00;;;;5032153;28;20213;-44
2022/12/03 01:21:11;;;;;;;3.80;2.90;;;15.50;63.50;16.40;101284.00;;;;5049899;28;20600;-44
2022/12/03 01:23:36;;;;;;;3.10;2.90;;;15.50;63.50;16.40;101288.00;;;;5031914;28;20248;-45
2022/12/03 01:26:02;;;;;;;3.40;3.03;;;15.50;63.60;16.30;101293.00;;;;5049972;28;20643;-44
2022/12/03 01:28:28;;;;;;;3.47;3.17;;;15.40;63.50;16.30;101282.00;;;;5049911;28;20178;-46
2022/12/03 01:33:38;;;;;;;3.20;3.00;;;15.40;63.60;16.30;101293.00;;;;5049699;28;20177;-44
2022/12/03 01:36:04;;;;;;;3.30;3.10;;;15.40;63.60;16.30;101294.00;;;;5049901;28;20592;-44
2022/12/03 01:38:29;;;;;;;3.33;3.03;;;15.40;63.70;16.30;101297.00;;;;5049880;28;20224;-43
2022/12/03 01:40:55;;;;;;;3.20;3.00;;;15.30;63.60;16.20;101293.00;;;;5049366;28;20166;-44
2022/12/03 01:43:21;;;;;;;3.00;2.80;;;15.30;63.60;16.20;101292.00;;;;5048824;28;20166;-44
2022/12/03 01:45:47;;;;;;;3.40;3.03;;;15.30;63.60;16.20;101292.00;;;;5049650;28;20255;-44
2022/12/03 01:48:14;;;;;;;3.00;2.80;;;15.30;63.70;16.20;101291.00;;;;5031618;28;20247;-44
2022/12/03 01:50:40;;;;;;;3.40;3.10;;;15.30;63.70;16.20;101293.00;;;;5049212;28;20252;-44
2022/12/03 01:53:08;;;;;;;3.23;3.00;;;15.20;63.60;16.10;101285.00;;;;5014741;28;20636;-44
2022/12/03 01:55:33;;;;;;;3.47;3.00;;;15.20;63.70;16.10;101300.00;;;;5032488;28;20194;-44
2022/12/03 01:57:59;;;;;;;3.13;2.93;;;15.20;63.70;16.10;101285.00;;;;5049605;28;20248;-45
2022/12/03 02:00:28;;;;;;;3.13;2.83;;;15.20;63.70;16.10;101293.00;;;;5031587;28;20166;-44
2022/12/03 02:03:00;;;;;;;2.97;2.77;;;15.20;63.70;16.10;101289.00;;;;5048849;28;20240;-44
2022/12/03 02:05:28;;;;;;;3.40;3.10;;;15.20;63.70;16.10;101288.00;;;;5048794;28;20255;-45
2022/12/03 02:07:54;;;;;;;3.07;2.87;;;15.20;63.90;16.10;101286.00;;;;5049166;28;20199;-45
2022/12/03 02:10:24;;;;;;;3.20;2.90;;;15.10;63.80;16.10;101290.00;;;;5048842;28;20174;-45
2022/12/03 02:13:16;;;;;;;3.20;2.90;;;15.10;63.80;16.00;101258.00;;;;5030371;28;20162;-44
2022/12/03 02:15:42;;;;;;;3.10;2.90;;;15.10;63.90;16.00;101284.00;;;;5035105;28;20268;-43
2022/12/03 02:18:08;;;;;;;3.10;2.90;;;15.10;63.90;16.00;101282.00;;;;5014998;28;20233;-43
2022/12/03 02:20:43;;;;;;;3.10;2.80;;;15.00;63.70;16.00;101278.00;;;;5031946;28;20166;-42
2022/12/03 02:23:21;;;;;;;2.80;2.60;;;15.00;63.80;16.00;101282.00;;;;5032215;28;20237;-43
2022/12/03 02:25:46;;;;;;;2.90;2.70;;;15.00;64.00;15.90;101279.00;;;;5049300;28;20169;-42
2022/12/03 02:28:12;;;;;;;2.90;2.70;;;15.00;64.10;16.00;101288.00;;;;5031458;28;20561;-44
2022/12/03 02:30:38;;;;;;;3.10;2.90;;;14.90;63.90;15.90;101272.00;;;;5048987;28;20170;-43
2022/12/03 02:33:04;;;;;;;3.10;2.90;;;15.00;64.10;15.90;101278.00;;;;5031092;28;20717;-42
2022/12/03 02:35:34;;;;;;;3.03;2.83;;;14.90;63.90;15.90;101280.00;;;;5030730;28;20194;-44
2022/12/03 02:38:20;;;;;;;3.10;2.80;;;14.90;63.90;15.90;101285.00;;;;5030983;28;20186;-43
2022/12/03 02:40:46;;;;;;;2.83;2.63;;;15.00;64.10;15.80;101274.00;;;;5033039;28;20233;-43
2022/12/03 02:43:13;;;;;;;3.10;2.90;;;14.90;63.90;15.80;101276.00;;;;5017277;28;20170;-43
2022/12/03 02:45:41;;;;;;;2.83;2.63;;;14.90;63.90;15.80;101269.00;;;;5032058;28;20171;-44
2022/12/03 02:48:30;;;;;;;2.90;2.70;;;14.90;63.80;15.80;101267.00;;;;5014429;28;20210;-43
2022/12/03 02:51:02;;;;;;;2.90;2.70;;;14.80;63.80;15.80;101256.00;;;;5033915;28;20178;-44
2022/12/03 02:53:37;;;;;;;2.87;2.67;;;14.80;63.80;15.80;101268.00;;;;5030919;28;20167;-43
2022/12/03 02:56:04;;;;;;;2.90;2.70;;;14.80;63.80;15.80;101239.00;;;;5032023;28;20244;-42
2022/12/03 02:58:30;;;;;;;3.17;2.93;;;14.80;63.90;15.80;101243.00;;;;5031235;28;20175;-43
2022/12/03 03:00:56;;;;;;;3.10;2.90;;;14.80;63.90;15.80;101271.00;;;;5030710;28;20281;-43
2022/12/03 03:03:22;;;;;;;3.23;2.93;;;14.80;63.90;15.80;101256.00;;;;5030596;28;20746;-43
2022/12/03 03:05:47;;;;;;;3.10;2.90;;;14.70;63.90;15.80;101254.00;;;;5030570;28;20254;-43
2022/12/03 03:08:13;;;;;;;2.67;2.47;;;14.70;64.10;15.80;101252.00;;;;5037049;28;20194;-43
2022/12/03 03:10:39;;;;;;;2.90;2.70;;;14.70;64.10;15.80;101257.00;;;;5050614;28;20166;-43
2022/12/03 03:13:10;;;;;;;2.87;2.67;;;14.70;64.20;15.80;101250.00;;;;5050276;28;20166;-43
2022/12/03 03:15:37;;;;;;;3.10;2.90;;;14.70;64.00;15.80;101250.00;;;;5050709;28;20251;-43
2022/12/03 03:18:04;;;;;;;2.70;2.50;;;14.70;64.30;15.80;101254.00;;;;5050565;28;20884;-43
2022/12/03 03:20:30;;;;;;;2.80;2.60;;;14.70;64.20;15.70;101244.00;;;;5050504;28;20697;-43
2022/12/03 03:23:09;;;;;;;3.10;2.90;;;14.70;64.20;15.70;101255.00;;;;5067979;28;20353;-42
2022/12/03 03:25:35;;;;;;;2.90;2.70;;;14.60;64.00;15.70;101251.00;;;;5051778;28;20177;-43
2022/12/03 03:28:01;;;;;;;2.93;2.73;;;14.70;64.30;15.70;101253.00;;;;5050648;28;20288;-44
2022/12/03 03:30:26;;;;;;;3.10;2.90;;;14.60;64.30;15.70;101249.00;;;;5050604;28;20633;-43
2022/12/03 03:32:52;;;;;;;3.07;2.87;;;14.60;64.30;15.70;101252.00;;;;5050040;28;20258;-43
2022/12/03 03:35:18;;;;;;;2.93;2.73;;;14.60;64.30;15.70;101253.00;;;;5068053;28;20262;-43
2022/12/03 03:37:43;;;;;;;3.00;2.80;;;14.60;64.30;15.40;101246.00;;;;5050264;28;20234;-43
2022/12/03 03:40:09;;;;;;;2.80;2.60;;;14.60;64.20;15.70;101258.00;;;;5050407;28;20181;-46
2022/12/03 03:42:35;;;;;;;3.00;2.80;;;14.60;64.30;15.70;101233.00;;;;5049690;28;20248;-42
2022/12/03 03:45:01;;;;;;;2.80;2.60;;;14.60;64.30;15.60;101247.00;;;;5050089;28;20693;-43
2022/12/03 03:47:26;;;;;;;3.17;2.97;;;14.60;64.50;15.60;101243.00;;;;5049817;28;20243;-42
2022/12/03 03:49:52;;;;;;;2.90;2.70;;;14.60;64.50;15.60;101252.00;;;;5050098;28;20166;-41
2022/12/03 03:52:18;;;;;;;2.83;2.63;;;14.60;64.60;15.60;101244.00;;;;5067937;28;20174;-42
2022/12/03 03:54:44;;;;;;;3.10;2.80;;;14.50;64.80;15.60;101241.00;;;;5049902;28;20284;-42
2022/12/03 03:57:09;;;;;;;2.90;2.70;;;14.50;64.70;15.60;101247.00;;;;5050117;28;20189;-43
2022/12/03 03:59:35;;;;;;;2.70;2.50;;;14.50;64.90;15.60;101227.00;;;;5050155;28;20235;-43
2022/12/03 04:02:01;;;;;;;2.93;2.73;;;14.50;64.90;15.60;101240.00;;;;5049695;28;20170;-42
2022/12/03 04:04:27;;;;;;;2.90;2.70;;;14.50;64.90;15.60;101238.00;;;;5064702;28;20603;-43
2022/12/03 04:06:52;;;;;;;2.70;2.50;;;14.50;64.80;15.60;101245.00;;;;5032954;28;20375;-43
2022/12/03 04:09:18;;;;;;;3.30;3.00;;;14.50;64.90;15.50;101244.00;;;;5067140;28;20682;-43
2022/12/03 04:14:28;;;;;;;2.80;2.60;;;14.40;64.60;15.50;101240.00;;;;5068726;28;20251;-42
2022/12/03 04:16:53;;;;;;;2.90;2.70;;;14.50;65.30;15.50;101235.00;;;;5068792;28;20873;-43
2022/12/03 04:19:19;;;;;;;2.80;2.60;;;14.50;65.20;15.50;101234.00;;;;5067333;28;20175;-43
2022/12/03 04:24:29;;;;;;;3.10;2.90;;;14.40;65.20;15.50;101238.00;;;;5067645;28;20161;-42
2022/12/03 04:29:39;;;;;;;2.80;2.60;;;14.40;65.50;15.50;101235.00;;;;5067179;28;20621;-42
2022/12/03 04:37:33;;;;;;;3.27;2.97;;;14.40;65.10;15.40;101234.00;;;;5069806;28;20193;-41
2022/12/03 04:39:59;;;;;;;5.17;3.17;;;14.40;65.10;15.40;101226.00;;;;5070728;28;20528;-42
2022/12/03 04:42:25;;;;;;;3.23;2.63;;;14.40;65.40;15.40;101226.00;;;;5069557;28;20222;-42
2022/12/03 04:44:50;;;;;;;4.47;3.10;;;14.40;65.00;15.40;101233.00;;;;5070211;28;20166;-42
2022/12/03 04:47:18;;;;;;;3.70;3.40;;;14.30;64.80;15.40;101224.00;;;;5070135;28;20198;-42
2022/12/03 04:49:49;;;;;;;3.40;3.10;;;14.30;64.70;15.40;101234.00;;;;5052345;28;20166;-43
2022/12/03 04:52:16;;;;;;;4.27;3.80;;;14.30;64.40;15.30;101225.00;;;;5070129;28;20162;-42
2022/12/03 04:54:42;;;;;;;4.67;3.93;;;14.30;64.20;15.30;101232.00;;;;5069813;28;20189;-42
2022/12/03 04:57:08;;;;;;;4.30;4.00;;;14.30;63.90;15.30;101224.00;;;;5069523;28;20186;-42
2022/12/03 04:59:34;;;;;;;4.17;3.87;;;14.30;63.60;15.30;101226.00;;;;5069782;28;20581;-43
2022/12/03 05:02:00;;;;;;;4.50;4.10;;;14.30;63.40;15.30;101223.00;;;;5052053;28;20162;-43
2022/12/03 05:04:26;;;;;;;5.57;4.50;;;14.20;63.30;15.30;101226.00;;;;5070036;28;20227;-43
2022/12/03 05:06:52;;;;;;;4.70;4.30;;;14.20;63.20;15.30;101223.00;;;;5069804;28;20327;-42
2022/12/03 05:09:17;;;;;;;4.50;4.10;;;14.20;63.30;15.30;101220.00;;;;5069939;28;20205;-42
2022/12/03 05:11:43;;;;;;;5.20;4.40;;;14.20;63.20;15.30;101217.00;;;;5035324;28;20162;-43
2022/12/03 05:14:09;;;;;;;4.70;4.30;;;14.20;63.00;15.20;101216.00;;;;5070062;28;20599;-41
2022/12/03 05:16:35;;;;;;;5.17;4.67;;;14.20;62.90;15.20;101208.00;;;;5069718;28;20674;-42
2022/12/03 05:19:02;;;;;;;6.00;4.83;;;14.20;62.70;15.20;101211.00;;;;5069278;28;20162;-42
2022/12/03 05:21:28;;;;;;;5.03;4.53;;;14.10;62.50;15.20;101218.00;;;;5068706;28;20169;-44
2022/12/03 05:23:53;;;;;;;6.27;4.67;;;14.10;62.30;15.20;101215.00;;;;5069930;28;20536;-42
2022/12/03 05:26:19;;;;;;;5.33;4.87;;;14.10;62.30;15.20;101217.00;;;;5069399;28;20178;-41
2022/12/03 05:28:45;;;;;;;5.10;4.60;;;14.10;62.30;15.20;101223.00;;;;5069427;28;20173;-42
2022/12/03 05:31:10;;;;;;;6.50;5.30;;;14.10;62.30;15.20;101220.00;;;;5069485;28;20173;-42
2022/12/03 05:33:36;;;;;;;8.60;4.90;;;14.10;62.30;15.20;101219.00;;;;5069611;28;20172;-42
2022/12/03 05:36:02;;;;;;;7.60;4.70;;;14.00;62.40;15.20;101217.00;;;;5069956;28;20208;-42
2022/12/03 05:38:28;;;;;;;9.43;4.87;;;14.10;62.50;15.20;101215.00;;;;5069711;28;20233;-43
2022/12/03 05:40:54;;;;;;;19.73;5.50;;;14.10;62.60;15.20;101203.00;;;;5069981;28;20182;-42
2022/12/03 05:43:19;;;;;;;18.40;5.97;;;14.10;62.50;15.20;101210.00;;;;5069905;28;20599;-42
2022/12/03 05:45:45;;;;;;;23.03;5.47;;;14.10;62.60;15.10;101209.00;;;;5069404;28;20182;-42
2022/12/03 05:48:13;;;;;;;14.57;5.77;;;14.00;62.80;15.10;101211.00;;;;5069423;28;20611;-43
2022/12/03 05:50:42;;;;;;;12.43;5.63;;;14.00;62.80;15.10;101215.00;;;;5071264;28;20225;-42
2022/12/03 05:53:07;;;;;;;16.33;5.40;;;14.00;62.80;15.10;101216.00;;;;5070296;28;20181;-43
2022/12/03 05:55:33;;;;;;;13.70;5.27;;;14.00;62.80;15.10;101213.00;;;;5069008;28;20189;-42
2022/12/03 05:57:59;;;;;;;16.03;5.20;;;14.00;62.90;15.10;101212.00;;;;5068738;28;20185;-43
2022/12/03 06:00:27;;;;;;;14.90;5.30;;;14.00;62.90;15.10;101211.00;;;;5068210;28;20178;-42
2022/12/03 06:02:53;;;;;;;7.83;4.80;;;14.00;62.90;15.10;101222.00;;;;5069283;28;20166;-42
2022/12/03 06:05:19;;;;;;;10.50;4.80;;;14.00;63.00;15.10;101219.00;;;;5069728;28;20375;-42
2022/12/03 06:07:45;;;;;;;10.53;5.13;;;14.00;63.00;15.00;101211.00;;;;5069261;28;20186;-50
2022/12/03 06:10:14;;;;;;;10.17;5.10;;;14.00;63.00;15.00;101217.00;;;;5069689;28;20174;-42
2022/12/03 06:12:40;;;;;;;10.80;5.40;;;14.00;63.00;15.00;101213.00;;;;5069431;28;20540;-43
2022/12/03 06:15:06;;;;;;;6.77;5.00;;;14.00;63.00;15.00;101209.00;;;;5069671;28;20217;-42
2022/12/03 06:17:32;;;;;;;10.67;5.30;;;14.00;63.00;15.00;101217.00;;;;5050960;28;20296;-42
2022/12/03 06:19:58;;;;;;;8.77;4.80;;;14.00;63.00;15.00;101211.00;;;;5069618;28;20169;-42
2022/12/03 06:22:24;;;;;;;8.20;4.90;;;14.00;62.90;15.00;101205.00;;;;5069066;28;20227;-43
2022/12/03 06:24:49;;;;;;;7.63;5.30;;;13.90;62.70;15.00;101208.00;;;;5069696;28;20174;-43
2022/12/03 06:27:16;;;;;;;11.80;5.43;;;13.90;62.70;15.00;101214.00;;;;5069131;28;20193;-43
2022/12/03 06:29:41;;;;;;;7.73;5.10;;;13.90;62.90;15.00;101214.00;;;;5069106;28;20173;-43
2022/12/03 06:32:07;;;;;;;7.27;4.97;;;13.90;62.90;15.00;101214.00;;;;5068791;28;20169;-43
2022/12/03 06:34:33;;;;;;;9.67;4.87;;;13.90;62.90;15.00;101211.00;;;;5069243;28;20189;-43
2022/12/03 06:36:59;;;;;;;8.03;4.70;;;13.90;62.90;15.00;101134.00;;;;5069007;28;20583;-43
2022/12/03 06:39:24;;;;;;;8.57;5.00;;;14.00;63.10;15.00;101203.00;;;;5068659;28;20209;-43
2022/12/03 06:41:50;;;;;;;7.77;4.63;;;14.10;62.90;15.10;101199.00;;;;5068658;28;20178;-43
2022/12/03 06:44:16;;;;;;;8.13;4.50;;;14.20;62.50;15.10;101200.00;;;;5068871;28;20263;-43
2022/12/03 06:46:42;;;;;;;7.50;4.60;;;14.40;62.40;15.10;101199.00;;;;5068403;28;20335;-42
2022/12/03 06:49:08;;;;;;;13.53;4.43;;;14.50;62.10;15.20;101207.00;;;;5068275;28;20208;-43
2022/12/03 06:51:34;;;;;;;8.27;3.90;;;14.70;62.00;15.30;101212.00;;;;5068656;28;20170;-42
2022/12/03 06:54:01;;;;;;;6.30;4.50;;;14.80;61.70;15.40;101205.00;;;;5068907;28;20323;-42
2022/12/03 06:56:27;;;;;;;8.70;4.13;;;15.00;61.40;15.50;101209.00;;;;5068723;28;20221;-42
2022/12/03 06:58:52;;;;;;;9.90;4.03;;;15.10;61.30;15.60;101201.00;;;;5067699;28;20242;-42
2022/12/03 07:01:19;;;;;;;6.00;3.90;;;15.30;61.10;15.60;101198.00;;;;5068302;28;20535;-42
2022/12/03 07:03:44;;;;;;;11.33;4.00;;;15.40;60.90;15.70;101198.00;;;;5068497;28;20182;-42
2022/12/03 07:06:10;;;;;;;7.63;3.83;;;15.50;60.80;15.80;101195.00;;;;5068505;28;20201;-41
2022/12/03 07:08:36;;;;;;;6.83;4.27;;;15.60;60.60;15.90;101203.00;;;;5068410;28;20196;-43
2022/12/03 07:11:02;;;;;;;6.17;3.90;;;15.60;60.50;16.00;101199.00;;;;5075987;28;20180;-42
2022/12/03 07:13:27;;;;;;;5.77;3.77;;;15.70;60.50;16.00;101198.00;;;;5079606;28;20205;-43
2022/12/03 07:15:53;;;;;;;7.53;3.43;;;15.70;60.60;16.10;101201.00;;;;5069008;28;20216;-43
2022/12/03 07:18:19;;;;;;;7.53;4.00;;;15.70;60.70;16.10;101196.00;;;;5067914;28;20209;-42
2022/12/03 07:20:44;;;;;;;6.03;3.33;;;15.70;60.60;16.20;101197.00;;;;5069035;28;20169;-42
2022/12/03 07:23:10;;;;;;;4.37;3.30;;;15.80;60.60;16.20;101200.00;;;;5068376;28;20199;-42
2022/12/03 07:25:36;;;;;;;4.03;3.40;;;15.90;60.70;16.30;101195.00;;;;5070214;28;20177;-43
2022/12/03 07:28:01;;;;;;;4.80;3.57;;;15.90;60.70;16.30;101188.00;;;;5068286;28;20198;-42
2022/12/03 07:30:27;;;;;;;4.23;3.70;;;15.90;60.70;16.30;101195.00;;;;5068373;28;20204;-43
2022/12/03 07:32:53;;;;;;;4.17;3.33;;;15.90;60.80;16.30;101194.00;;;;5068417;28;20178;-43
2022/12/03 07:35:19;;;;;;;5.37;3.50;;;15.80;60.80;16.40;101205.00;;;;5068045;28;20197;-42
2022/12/03 07:37:45;;;;;;;5.17;3.30;;;15.90;61.00;16.40;101196.00;;;;5050353;28;20224;-44
2022/12/03 07:40:11;;;;;;;5.00;3.50;;;15.90;61.00;16.40;101197.00;;;;5068303;28;20170;-43
2022/12/03 07:42:37;;;;;;;3.80;3.40;;;15.90;60.90;16.40;101195.00;;;;5067831;28;20270;-43
2022/12/03 07:45:03;;;;;;;4.10;3.40;;;15.90;61.00;16.50;101199.00;;;;5068518;28;20638;-43
2022/12/03 07:47:28;;;;;;;5.37;3.20;;;15.90;61.20;16.50;101203.00;;;;5068294;28;20200;-47
2022/12/03 07:49:54;;;;;;;4.67;3.53;;;15.90;61.30;16.50;101203.00;;;;5068487;28;20173;-43
2022/12/03 07:52:20;;;;;;;6.83;4.00;;;16.00;61.30;16.50;101205.00;;;;5068094;28;20180;-43
2022/12/03 07:54:46;;;;;;;3.80;3.23;;;16.00;61.20;16.50;101205.00;;;;5068254;28;20205;-43
2022/12/03 07:57:11;;;;;;;6.50;3.63;;;16.00;61.20;16.50;101196.00;;;;5068093;28;20557;-43
2022/12/03 07:59:37;;;;;;;3.97;3.20;;;16.00;61.30;16.50;101206.00;;;;5051169;28;20182;-42
2022/12/03 08:02:03;;;;;;;5.03;3.37;;;16.00;61.40;16.60;101202.00;;;;5048240;28;20178;-43
2022/12/03 08:04:29;;;;;;;5.63;3.50;;;15.90;61.30;16.60;101198.00;;;;5048412;28;20308;-43
2022/12/03 08:06:54;;;;;;;4.00;3.50;;;16.00;61.50;16.60;101205.00;;;;5048091;28;20202;-43
2022/12/03 08:09:20;;;;;;;4.33;3.20;;;16.00;61.50;16.60;101192.00;;;;5049617;28;20645;-43
2022/12/03 08:11:47;;;;;;;4.17;3.30;;;16.10;61.50;16.60;101194.00;;;;5051655;28;20174;-43
2022/12/03 08:14:17;;;;;;;4.10;3.60;;;16.10;61.50;16.60;101198.00;;;;5034049;28;20697;-42
2022/12/03 08:16:46;;;;;;;4.03;3.33;;;16.00;61.30;16.60;101196.00;;;;5051942;28;20202;-42
2022/12/03 08:19:16;;;;;;;3.90;3.27;;;16.10;61.40;16.60;101191.00;;;;5051249;28;20202;-43
2022/12/03 08:21:42;;;;;;;3.93;3.20;;;16.00;61.40;16.60;101195.00;;;;5049429;28;20163;-43
2022/12/03 08:24:17;;;;;;;3.90;3.30;;;16.00;61.40;16.60;101193.00;;;;5050320;28;20638;-41
2022/12/03 08:26:43;;;;;;;3.40;3.10;;;16.00;61.50;16.60;101197.00;;;;5051124;28;20205;-42
2022/12/03 08:29:12;;;;;;;3.33;3.03;;;16.00;61.50;16.60;101193.00;;;;5032774;28;20178;-43
2022/12/03 08:31:37;;;;;;;3.70;3.30;;;16.00;61.60;16.60;101194.00;;;;5050218;28;20220;-42
2022/12/03 08:34:16;;;;;;;5.37;3.20;;;16.10;61.60;16.70;101206.00;;;;5034337;28;20178;-42
2022/12/03 08:36:41;;;;;;;3.47;3.13;;;16.10;61.50;16.70;101198.00;;;;4962130;28;20205;-42
2022/12/03 08:39:32;;;;;;;3.37;3.07;;;16.10;61.50;16.70;101204.00;;;;5069166;28;20246;-43
2022/12/03 08:44:55;;;;;;;3.53;3.23;;;16.10;61.60;16.60;101206.00;;;;5036543;28;20201;-42
2022/12/03 08:47:24;;;;;;;3.60;3.30;;;16.00;61.60;16.70;101205.00;;;;5017327;28;20202;-43
2022/12/03 08:49:57;;;;;;;3.53;3.17;;;16.10;61.50;16.70;101208.00;;;;5057147;28;20188;-43
2022/12/03 08:52:30;;;;;;;3.30;3.00;;;16.10;61.50;16.70;101197.00;;;;5033363;28;20167;-43
2022/12/03 08:54:56;;;;;;;3.50;3.20;;;16.20;61.50;16.70;101202.00;;;;5049517;28;20615;-43
2022/12/03 08:57:30;;;;;;;3.40;2.97;;;16.10;61.50;16.70;101200.00;;;;5064364;28;20279;-42
2022/12/03 09:00:20;;;;;;;3.90;3.17;;;16.10;61.50;16.70;101200.00;;;;5034934;28;20525;-43
2022/12/03 09:02:49;;;;;;;3.70;3.40;;;16.10;61.60;16.70;101211.00;;;;5050208;28;20178;-42
2022/12/03 09:05:19;;;;;;;3.40;3.10;;;16.00;61.60;16.70;101217.00;;;;5053587;28;20174;-43
2022/12/03 09:07:45;;;;;;;3.20;3.00;;;16.00;61.70;16.70;101208.00;;;;5070987;28;20189;-42
2022/12/03 09:10:11;;;;;;;3.70;3.37;;;16.10;61.90;16.70;101213.00;;;;5070738;28;20181;-43
2022/12/03 09:12:37;;;;;;;3.33;3.03;;;16.10;61.80;16.70;101217.00;;;;5070953;28;20182;-43
2022/12/03 09:15:03;;;;;;;3.27;2.97;;;16.10;61.70;16.70;101199.00;;;;5070153;28;20228;-42
2022/12/03 09:17:28;;;;;;;3.60;3.30;;;16.10;62.40;16.70;101211.00;;;;5052762;28;20205;-43
2022/12/03 09:19:54;;;;;;;3.57;3.27;;;16.20;61.60;16.70;101203.00;;;;5070215;28;20831;-42
2022/12/03 09:22:20;;;;;;;3.43;3.13;;;16.10;61.50;16.70;101202.00;;;;5070011;28;20165;-42
2022/12/03 09:24:45;;;;;;;3.73;3.33;;;16.10;61.50;16.70;101202.00;;;;5070427;28;20171;-42
2022/12/03 09:27:11;;;;;;;3.50;3.20;;;16.10;61.60;16.70;101204.00;;;;5070496;28;20221;-42
2022/12/03 09:29:37;;;;;;;3.47;3.17;;;16.10;61.70;16.70;101201.00;;;;5069296;28;20184;-43
2022/12/03 09:32:03;;;;;;;3.10;2.90;;;16.10;61.80;16.80;101215.00;;;;5050536;28;20174;-44
2022/12/03 09:34:29;;;;;;;3.27;2.97;;;16.10;61.80;16.80;101206.00;;;;5036061;28;20336;-42
2022/12/03 09:36:55;;;;;;;3.30;3.00;;;16.10;61.60;16.80;101200.00;;;;4993368;28;20222;-43
2022/12/03 09:39:20;;;;;;;3.30;3.00;;;16.20;61.80;16.80;101202.00;;;;5050284;28;20198;-42
2022/12/03 09:41:46;;;;;;;3.20;3.00;;;16.10;61.60;16.80;101212.00;;;;5050035;28;20262;-43
2022/12/03 09:44:12;;;;;;;3.00;2.80;;;16.20;61.70;16.80;101201.00;;;;5049954;28;20666;-42
2022/12/03 09:46:38;;;;;;;4.10;3.30;;;16.20;61.70;16.80;101191.00;;;;5032080;28;20558;-41
2022/12/03 09:49:04;;;;;;;3.03;2.80;;;16.10;61.70;16.80;101190.00;;;;5032544;28;20174;-43
2022/12/03 09:51:33;;;;;;;3.50;3.10;;;16.10;61.70;16.80;101191.00;;;;5032621;28;20186;-43
2022/12/03 09:54:00;;;;;;;3.27;2.97;;;16.10;61.90;16.80;101190.00;;;;5032905;28;20546;-43
2022/12/03 09:56:25;;;;;;;3.50;3.20;;;16.00;61.90;16.70;101189.00;;;;5040076;28;20194;-43
2022/12/03 09:58:51;;;;;;;3.10;2.83;;;16.10;62.00;16.80;101194.00;;;;5038364;28;20171;-42
2022/12/03 10:01:17;;;;;;;3.07;2.80;;;16.10;61.90;16.80;101189.00;;;;5031852;28;20549;-43
2022/12/03 10:03:49;;;;;;;3.00;2.80;;;16.10;61.90;16.80;101171.00;;;;5032062;28;20182;-43
2022/12/03 10:06:19;;;;;;;3.40;3.10;;;16.10;61.80;16.80;101184.00;;;;5031923;28;20692;-42
2022/12/03 10:08:47;;;;;;;3.13;2.87;;;16.20;61.90;16.80;101164.00;;;;5049784;28;20193;-43
2022/12/03 10:11:14;;;;;;;3.07;2.77;;;16.20;61.90;16.80;101181.00;;;;5031894;28;20170;-43
2022/12/03 10:13:39;;;;;;;3.40;3.07;;;16.10;61.70;16.80;101176.00;;;;5032839;28;20167;-42
2022/12/03 10:16:10;;;;;;;3.40;3.10;;;16.10;61.90;16.80;101164.00;;;;5032246;28;20204;-42
2022/12/03 10:18:35;;;;;;;3.20;2.90;;;16.10;61.90;16.80;101179.00;;;;5017007;28;20182;-42
2022/12/03 10:21:01;;;;;;;3.20;3.00;;;16.10;62.00;16.70;101167.00;;;;5016862;28;20189;-42
2022/12/03 10:23:29;;;;;;;3.30;3.00;;;16.10;62.10;16.70;101174.00;;;;5031472;28;20201;-42
2022/12/03 10:25:56;;;;;;;3.00;2.80;;;16.10;62.10;16.70;101169.00;;;;5015526;28;20296;-42
2022/12/03 10:28:34;;;;;;;4.87;2.93;;;16.10;62.00;16.80;101169.00;;;;5066369;28;20751;-43
2022/12/03 10:31:02;;;;;;;3.87;2.90;;;16.20;62.50;16.80;101160.00;;;;5069310;28;20190;-44
2022/12/03 10:33:30;;;;;;;3.50;3.00;;;16.20;62.90;16.80;101159.00;;;;5068467;28;20177;-41
2022/12/03 10:35:56;;;;;;;3.50;3.03;;;16.20;63.20;16.80;101167.00;;;;5016730;28;20202;-43
2022/12/03 10:38:22;;;;;;;7.00;2.73;;;16.20;63.30;16.80;101162.00;;;;5051226;28;20208;-43
2022/12/03 10:40:48;;;;;;;6.63;3.00;;;16.20;63.30;16.80;101153.00;;;;5069033;28;20170;-43
2022/12/03 10:43:26;;;;;;;4.50;2.97;;;16.10;63.50;16.80;101149.00;;;;5068936;28;20169;-43
2022/12/03 10:46:00;;;;;;;4.93;3.00;;;16.20;63.60;16.80;101142.00;;;;5069141;28;20169;-44
2022/12/03 10:48:29;;;;;;;7.70;3.33;;;16.20;64.00;16.80;101144.00;;;;5068794;28;20190;-42
2022/12/03 10:51:19;;;;;;;13.67;3.43;;;16.10;63.90;16.80;101133.00;;;;5051332;28;20239;-43
2022/12/03 10:53:45;;;;;;;4.07;3.07;;;16.10;64.10;16.80;101133.00;;;;5055283;28;20183;-44
2022/12/03 10:56:16;;;;;;;9.30;3.67;;;16.10;63.70;16.80;101120.00;;;;5072112;28;20235;-42
2022/12/03 10:58:42;;;;;;;8.10;3.30;;;16.10;63.50;16.80;101125.00;;;;5053144;28;20245;-43
2022/12/03 11:01:18;;;;;;;5.37;3.70;;;16.00;63.00;16.80;101131.00;;;;5068144;28;20231;-42
2022/12/03 11:03:44;;;;;;;7.33;3.83;;;16.10;62.60;16.70;101124.00;;;;5068890;28;20158;-42
2022/12/03 11:06:15;;;;;;;5.07;4.00;;;16.10;62.30;16.70;101121.00;;;;5051080;28;20204;-43